sensor_id;sensor_type;location;lat;lon;timestamp;P1;durP1;ratioP1;P2;durP2;ratioP2
64609;SDS011;51019;46.090;6.350;2023-05-07T00:01:12;13.98;;;4.28;;
64609;SDS011;51019;46.090;6.350;2023-05-07T00:03:43;11.95;;;4.50;;
64609;SDS011;51019;46.090;6.350;2023-05-07T00:06:11;13.63;;;4.97;;
64609;SDS011;51019;46.090;6.350;2023-05-07T00:08:41;11.80;;;4.38;;
64609;SDS011;51019;46.090;6.350;2023-05-07T00:11:09;15.45;;;5.03;;
64609;SDS011;51019;46.090;6.350;2023-05-07T00:13:36;11.63;;;4.60;;
64609;SDS011;51019;46.090;6.350;2023-05-07T00:16:04;12.00;;;4.43;;
64609;SDS011;51019;46.090;6.350;2023-05-07T00:18:32;12.70;;;4.60;;
64609;SDS011;51019;46.090;6.350;2023-05-07T00:21:03;12.43;;;4.57;;
64609;SDS011;51019;46.090;6.350;2023-05-07T00:23:30;12.95;;;4.28;;
64609;SDS011;51019;46.090;6.350;2023-05-07T00:25:58;13.50;;;4.72;;
64609;SDS011;51019;46.090;6.350;2023-05-07T00:28:25;14.15;;;5.30;;
64609;SDS011;51019;46.090;6.350;2023-05-07T00:30:55;11.63;;;4.47;;
64609;SDS011;51019;46.090;6.350;2023-05-07T00:33:23;13.57;;;4.78;;
64609;SDS011;51019;46.090;6.350;2023-05-07T00:35:51;15.27;;;5.00;;
64609;SDS011;51019;46.090;6.350;2023-05-07T00:38:21;13.73;;;4.70;;
64609;SDS011;51019;46.090;6.350;2023-05-07T00:40:49;13.05;;;5.25;;
64609;SDS011;51019;46.090;6.350;2023-05-07T00:43:17;13.88;;;5.63;;
64609;SDS011;51019;46.090;6.350;2023-05-07T00:45:45;11.55;;;4.72;;
64609;SDS011;51019;46.090;6.350;2023-05-07T00:48:13;13.73;;;5.30;;
64609;SDS011;51019;46.090;6.350;2023-05-07T00:50:42;13.07;;;5.05;;
64609;SDS011;51019;46.090;6.350;2023-05-07T00:53:09;14.05;;;5.25;;
64609;SDS011;51019;46.090;6.350;2023-05-07T00:55:39;13.77;;;4.75;;
64609;SDS011;51019;46.090;6.350;2023-05-07T00:58:06;13.65;;;5.75;;
64609;SDS011;51019;46.090;6.350;2023-05-07T01:00:34;13.48;;;4.97;;
64609;SDS011;51019;46.090;6.350;2023-05-07T01:03:02;13.93;;;4.80;;
64609;SDS011;51019;46.090;6.350;2023-05-07T01:05:29;12.63;;;5.22;;
64609;SDS011;51019;46.090;6.350;2023-05-07T01:07:57;13.90;;;4.80;;
64609;SDS011;51019;46.090;6.350;2023-05-07T01:10:27;14.00;;;5.25;;
64609;SDS011;51019;46.090;6.350;2023-05-07T01:13:01;11.82;;;4.30;;
64609;SDS011;51019;46.090;6.350;2023-05-07T01:15:30;12.73;;;4.88;;
64609;SDS011;51019;46.090;6.350;2023-05-07T01:17:58;11.50;;;4.43;;
64609;SDS011;51019;46.090;6.350;2023-05-07T01:20:26;15.80;;;5.25;;
64609;SDS011;51019;46.090;6.350;2023-05-07T01:22:56;14.95;;;5.15;;
64609;SDS011;51019;46.090;6.350;2023-05-07T01:25:24;14.13;;;4.75;;
64609;SDS011;51019;46.090;6.350;2023-05-07T01:27:53;14.25;;;4.70;;
64609;SDS011;51019;46.090;6.350;2023-05-07T01:30:21;11.82;;;4.38;;
64609;SDS011;51019;46.090;6.350;2023-05-07T01:32:49;11.90;;;5.07;;
64609;SDS011;51019;46.090;6.350;2023-05-07T01:35:24;14.52;;;5.70;;
64609;SDS011;51019;46.090;6.350;2023-05-07T01:37:56;14.30;;;4.60;;
64609;SDS011;51019;46.090;6.350;2023-05-07T01:40:25;12.27;;;4.65;;
64609;SDS011;51019;46.090;6.350;2023-05-07T01:42:53;14.23;;;5.35;;
64609;SDS011;51019;46.090;6.350;2023-05-07T01:45:21;12.32;;;4.82;;
64609;SDS011;51019;46.090;6.350;2023-05-07T01:47:49;15.25;;;5.25;;
64609;SDS011;51019;46.090;6.350;2023-05-07T01:50:17;13.15;;;4.68;;
64609;SDS011;51019;46.090;6.350;2023-05-07T01:52:49;13.35;;;4.60;;
64609;SDS011;51019;46.090;6.350;2023-05-07T01:55:19;14.25;;;4.93;;
64609;SDS011;51019;46.090;6.350;2023-05-07T01:57:46;12.07;;;4.60;;
64609;SDS011;51019;46.090;6.350;2023-05-07T02:00:14;12.05;;;4.80;;
64609;SDS011;51019;46.090;6.350;2023-05-07T02:02:44;12.70;;;4.57;;
64609;SDS011;51019;46.090;6.350;2023-05-07T02:05:12;14.52;;;4.97;;
64609;SDS011;51019;46.090;6.350;2023-05-07T02:07:40;13.73;;;4.75;;
64609;SDS011;51019;46.090;6.350;2023-05-07T02:10:09;13.35;;;4.82;;
64609;SDS011;51019;46.090;6.350;2023-05-07T02:12:39;16.60;;;4.90;;
64609;SDS011;51019;46.090;6.350;2023-05-07T02:15:08;16.92;;;5.55;;
64609;SDS011;51019;46.090;6.350;2023-05-07T02:17:39;12.73;;;5.20;;
64609;SDS011;51019;46.090;6.350;2023-05-07T02:20:24;14.13;;;5.05;;
64609;SDS011;51019;46.090;6.350;2023-05-07T02:22:52;13.10;;;5.00;;
64609;SDS011;51019;46.090;6.350;2023-05-07T02:25:20;16.63;;;5.13;;
64609;SDS011;51019;46.090;6.350;2023-05-07T02:27:51;12.50;;;5.32;;
64609;SDS011;51019;46.090;6.350;2023-05-07T02:30:21;14.27;;;5.10;;
64609;SDS011;51019;46.090;6.350;2023-05-07T02:32:50;12.18;;;4.75;;
64609;SDS011;51019;46.090;6.350;2023-05-07T02:35:18;14.02;;;5.05;;
64609;SDS011;51019;46.090;6.350;2023-05-07T02:37:47;15.18;;;5.25;;
64609;SDS011;51019;46.090;6.350;2023-05-07T02:40:15;11.93;;;5.13;;
64609;SDS011;51019;46.090;6.350;2023-05-07T02:42:44;14.00;;;4.93;;
64609;SDS011;51019;46.090;6.350;2023-05-07T02:45:12;13.18;;;4.50;;
64609;SDS011;51019;46.090;6.350;2023-05-07T02:47:41;10.95;;;4.63;;
64609;SDS011;51019;46.090;6.350;2023-05-07T02:50:09;12.32;;;4.53;;
64609;SDS011;51019;46.090;6.350;2023-05-07T02:52:37;14.60;;;5.03;;
64609;SDS011;51019;46.090;6.350;2023-05-07T02:55:05;14.32;;;5.53;;
64609;SDS011;51019;46.090;6.350;2023-05-07T02:57:35;14.80;;;5.28;;
64609;SDS011;51019;46.090;6.350;2023-05-07T03:00:16;13.93;;;4.82;;
64609;SDS011;51019;46.090;6.350;2023-05-07T03:02:49;14.85;;;5.20;;
64609;SDS011;51019;46.090;6.350;2023-05-07T03:05:16;12.25;;;4.70;;
64609;SDS011;51019;46.090;6.350;2023-05-07T03:07:44;13.80;;;5.28;;
64609;SDS011;51019;46.090;6.350;2023-05-07T03:10:12;14.05;;;5.40;;
64609;SDS011;51019;46.090;6.350;2023-05-07T03:12:40;13.10;;;5.78;;
64609;SDS011;51019;46.090;6.350;2023-05-07T03:15:07;13.45;;;5.30;;
64609;SDS011;51019;46.090;6.350;2023-05-07T03:17:38;14.55;;;5.72;;
64609;SDS011;51019;46.090;6.350;2023-05-07T03:20:06;12.68;;;5.00;;
64609;SDS011;51019;46.090;6.350;2023-05-07T03:22:34;13.25;;;5.05;;
64609;SDS011;51019;46.090;6.350;2023-05-07T03:25:02;13.95;;;5.25;;
64609;SDS011;51019;46.090;6.350;2023-05-07T03:27:29;12.63;;;4.38;;
64609;SDS011;51019;46.090;6.350;2023-05-07T03:29:56;13.75;;;5.20;;
64609;SDS011;51019;46.090;6.350;2023-05-07T03:32:24;15.80;;;4.85;;
64609;SDS011;51019;46.090;6.350;2023-05-07T03:34:56;11.63;;;4.97;;
64609;SDS011;51019;46.090;6.350;2023-05-07T03:37:24;12.98;;;5.13;;
64609;SDS011;51019;46.090;6.350;2023-05-07T03:39:52;12.73;;;4.90;;
64609;SDS011;51019;46.090;6.350;2023-05-07T03:42:19;11.45;;;4.50;;
64609;SDS011;51019;46.090;6.350;2023-05-07T03:44:47;13.65;;;5.15;;
64609;SDS011;51019;46.090;6.350;2023-05-07T03:47:14;14.15;;;4.95;;
64609;SDS011;51019;46.090;6.350;2023-05-07T03:49:42;14.27;;;4.93;;
64609;SDS011;51019;46.090;6.350;2023-05-07T03:52:13;12.52;;;4.63;;
64609;SDS011;51019;46.090;6.350;2023-05-07T03:54:47;13.98;;;4.65;;
64609;SDS011;51019;46.090;6.350;2023-05-07T03:57:16;14.45;;;5.20;;
64609;SDS011;51019;46.090;6.350;2023-05-07T03:59:44;11.75;;;4.47;;
64609;SDS011;51019;46.090;6.350;2023-05-07T04:02:11;13.52;;;4.95;;
64609;SDS011;51019;46.090;6.350;2023-05-07T04:04:38;14.18;;;5.13;;
64609;SDS011;51019;46.090;6.350;2023-05-07T04:07:06;14.07;;;5.07;;
64609;SDS011;51019;46.090;6.350;2023-05-07T04:09:35;12.10;;;4.82;;
64609;SDS011;51019;46.090;6.350;2023-05-07T04:12:03;14.30;;;5.07;;
64609;SDS011;51019;46.090;6.350;2023-05-07T04:14:31;11.48;;;4.30;;
64609;SDS011;51019;46.090;6.350;2023-05-07T04:16:59;13.43;;;4.43;;
64609;SDS011;51019;46.090;6.350;2023-05-07T04:19:26;13.02;;;4.53;;
64609;SDS011;51019;46.090;6.350;2023-05-07T04:21:54;13.15;;;4.32;;
64609;SDS011;51019;46.090;6.350;2023-05-07T04:24:21;10.98;;;4.03;;
64609;SDS011;51019;46.090;6.350;2023-05-07T04:26:51;12.57;;;4.40;;
64609;SDS011;51019;46.090;6.350;2023-05-07T04:29:20;13.10;;;4.65;;
64609;SDS011;51019;46.090;6.350;2023-05-07T04:31:47;12.80;;;4.82;;
64609;SDS011;51019;46.090;6.350;2023-05-07T04:34:15;11.43;;;4.32;;
64609;SDS011;51019;46.090;6.350;2023-05-07T04:36:42;13.68;;;4.40;;
64609;SDS011;51019;46.090;6.350;2023-05-07T04:39:12;14.13;;;4.22;;
64609;SDS011;51019;46.090;6.350;2023-05-07T04:41:39;13.65;;;4.25;;
64609;SDS011;51019;46.090;6.350;2023-05-07T04:44:08;13.40;;;4.55;;
64609;SDS011;51019;46.090;6.350;2023-05-07T04:46:36;12.82;;;4.30;;
64609;SDS011;51019;46.090;6.350;2023-05-07T04:49:03;12.57;;;4.10;;
64609;SDS011;51019;46.090;6.350;2023-05-07T04:51:31;14.70;;;4.35;;
64609;SDS011;51019;46.090;6.350;2023-05-07T04:53:59;14.15;;;4.20;;
64609;SDS011;51019;46.090;6.350;2023-05-07T04:56:28;11.13;;;3.88;;
64609;SDS011;51019;46.090;6.350;2023-05-07T04:58:57;15.48;;;4.65;;
64609;SDS011;51019;46.090;6.350;2023-05-07T05:01:26;12.43;;;4.45;;
64609;SDS011;51019;46.090;6.350;2023-05-07T05:03:54;13.82;;;3.90;;
64609;SDS011;51019;46.090;6.350;2023-05-07T05:06:21;12.18;;;3.95;;
64609;SDS011;51019;46.090;6.350;2023-05-07T05:08:49;12.00;;;3.92;;
64609;SDS011;51019;46.090;6.350;2023-05-07T05:11:16;14.02;;;4.70;;
64609;SDS011;51019;46.090;6.350;2023-05-07T05:13:47;15.85;;;3.78;;
64609;SDS011;51019;46.090;6.350;2023-05-07T05:16:15;14.45;;;4.53;;
64609;SDS011;51019;46.090;6.350;2023-05-07T05:18:44;12.45;;;4.45;;
64609;SDS011;51019;46.090;6.350;2023-05-07T05:21:11;12.23;;;4.10;;
64609;SDS011;51019;46.090;6.350;2023-05-07T05:23:39;12.68;;;4.00;;
64609;SDS011;51019;46.090;6.350;2023-05-07T05:26:06;11.18;;;4.15;;
64609;SDS011;51019;46.090;6.350;2023-05-07T05:28:33;11.25;;;3.45;;
64609;SDS011;51019;46.090;6.350;2023-05-07T05:31:03;12.48;;;3.60;;
64609;SDS011;51019;46.090;6.350;2023-05-07T05:33:32;11.40;;;3.50;;
64609;SDS011;51019;46.090;6.350;2023-05-07T05:36:01;11.63;;;3.60;;
64609;SDS011;51019;46.090;6.350;2023-05-07T05:38:29;11.60;;;3.55;;
64609;SDS011;51019;46.090;6.350;2023-05-07T05:41:01;12.95;;;4.10;;
64609;SDS011;51019;46.090;6.350;2023-05-07T05:43:29;12.20;;;3.90;;
64609;SDS011;51019;46.090;6.350;2023-05-07T05:45:56;11.10;;;3.60;;
64609;SDS011;51019;46.090;6.350;2023-05-07T05:48:25;12.82;;;4.00;;
64609;SDS011;51019;46.090;6.350;2023-05-07T05:50:54;11.60;;;4.15;;
64609;SDS011;51019;46.090;6.350;2023-05-07T05:53:24;10.75;;;3.67;;
64609;SDS011;51019;46.090;6.350;2023-05-07T05:55:52;13.98;;;3.90;;
64609;SDS011;51019;46.090;6.350;2023-05-07T05:58:20;12.40;;;3.88;;
64609;SDS011;51019;46.090;6.350;2023-05-07T06:00:48;15.70;;;3.70;;
64609;SDS011;51019;46.090;6.350;2023-05-07T06:03:17;11.60;;;3.92;;
64609;SDS011;51019;46.090;6.350;2023-05-07T06:05:45;13.27;;;4.35;;
64609;SDS011;51019;46.090;6.350;2023-05-07T06:08:14;11.45;;;3.72;;
64609;SDS011;51019;46.090;6.350;2023-05-07T06:10:43;11.48;;;3.75;;
64609;SDS011;51019;46.090;6.350;2023-05-07T06:13:10;15.32;;;3.80;;
64609;SDS011;51019;46.090;6.350;2023-05-07T06:15:38;12.15;;;3.85;;
64609;SDS011;51019;46.090;6.350;2023-05-07T06:18:05;10.85;;;3.65;;
64609;SDS011;51019;46.090;6.350;2023-05-07T06:20:32;13.30;;;3.80;;
64609;SDS011;51019;46.090;6.350;2023-05-07T06:23:00;12.50;;;3.60;;
64609;SDS011;51019;46.090;6.350;2023-05-07T06:25:27;11.73;;;3.58;;
64609;SDS011;51019;46.090;6.350;2023-05-07T06:27:57;12.93;;;4.15;;
64609;SDS011;51019;46.090;6.350;2023-05-07T06:30:25;10.98;;;3.60;;
64609;SDS011;51019;46.090;6.350;2023-05-07T06:32:52;13.07;;;4.03;;
64609;SDS011;51019;46.090;6.350;2023-05-07T06:35:20;11.85;;;3.88;;
64609;SDS011;51019;46.090;6.350;2023-05-07T06:37:49;13.18;;;4.10;;
64609;SDS011;51019;46.090;6.350;2023-05-07T06:40:17;13.35;;;3.70;;
64609;SDS011;51019;46.090;6.350;2023-05-07T06:42:44;11.27;;;3.60;;
64609;SDS011;51019;46.090;6.350;2023-05-07T06:45:13;12.95;;;3.60;;
64609;SDS011;51019;46.090;6.350;2023-05-07T06:47:40;10.25;;;3.33;;
64609;SDS011;51019;46.090;6.350;2023-05-07T06:50:08;10.13;;;3.50;;
64609;SDS011;51019;46.090;6.350;2023-05-07T06:52:37;10.23;;;3.00;;
64609;SDS011;51019;46.090;6.350;2023-05-07T06:55:05;13.73;;;3.50;;
64609;SDS011;51019;46.090;6.350;2023-05-07T06:57:36;11.73;;;4.05;;
64609;SDS011;51019;46.090;6.350;2023-05-07T07:00:05;11.95;;;3.50;;
64609;SDS011;51019;46.090;6.350;2023-05-07T07:02:37;10.38;;;3.00;;
64609;SDS011;51019;46.090;6.350;2023-05-07T07:05:04;11.15;;;3.35;;
64609;SDS011;51019;46.090;6.350;2023-05-07T07:07:33;10.57;;;3.35;;
64609;SDS011;51019;46.090;6.350;2023-05-07T07:10:00;13.10;;;3.28;;
64609;SDS011;51019;46.090;6.350;2023-05-07T07:12:29;12.77;;;3.38;;
64609;SDS011;51019;46.090;6.350;2023-05-07T07:14:59;9.63;;;2.85;;
64609;SDS011;51019;46.090;6.350;2023-05-07T07:17:27;10.80;;;2.83;;
64609;SDS011;51019;46.090;6.350;2023-05-07T07:19:57;9.25;;;2.92;;
64609;SDS011;51019;46.090;6.350;2023-05-07T07:22:24;9.98;;;3.25;;
64609;SDS011;51019;46.090;6.350;2023-05-07T07:24:53;11.48;;;3.58;;
64609;SDS011;51019;46.090;6.350;2023-05-07T07:27:22;10.77;;;3.45;;
64609;SDS011;51019;46.090;6.350;2023-05-07T07:29:51;8.68;;;2.95;;
64609;SDS011;51019;46.090;6.350;2023-05-07T07:32:19;10.15;;;3.08;;
64609;SDS011;51019;46.090;6.350;2023-05-07T07:34:47;10.23;;;3.13;;
64609;SDS011;51019;46.090;6.350;2023-05-07T07:37:17;9.77;;;2.60;;
64609;SDS011;51019;46.090;6.350;2023-05-07T07:39:44;9.65;;;2.92;;
64609;SDS011;51019;46.090;6.350;2023-05-07T07:42:12;11.45;;;3.05;;
64609;SDS011;51019;46.090;6.350;2023-05-07T07:44:39;10.98;;;3.03;;
64609;SDS011;51019;46.090;6.350;2023-05-07T07:47:07;13.68;;;3.10;;
64609;SDS011;51019;46.090;6.350;2023-05-07T07:49:34;10.40;;;3.00;;
64609;SDS011;51019;46.090;6.350;2023-05-07T07:52:02;10.00;;;3.13;;
64609;SDS011;51019;46.090;6.350;2023-05-07T07:54:32;10.90;;;3.20;;
64609;SDS011;51019;46.090;6.350;2023-05-07T07:56:59;9.90;;;3.05;;
64609;SDS011;51019;46.090;6.350;2023-05-07T07:59:27;9.65;;;3.03;;
64609;SDS011;51019;46.090;6.350;2023-05-07T08:01:55;9.18;;;2.78;;
64609;SDS011;51019;46.090;6.350;2023-05-07T08:04:27;9.82;;;3.08;;
64609;SDS011;51019;46.090;6.350;2023-05-07T08:06:55;10.27;;;3.05;;
64609;SDS011;51019;46.090;6.350;2023-05-07T08:09:22;10.35;;;3.13;;
64609;SDS011;51019;46.090;6.350;2023-05-07T08:11:53;13.52;;;3.30;;
64609;SDS011;51019;46.090;6.350;2023-05-07T08:14:22;10.88;;;3.17;;
64609;SDS011;51019;46.090;6.350;2023-05-07T08:16:51;9.70;;;2.83;;
64609;SDS011;51019;46.090;6.350;2023-05-07T08:19:19;11.10;;;2.83;;
64609;SDS011;51019;46.090;6.350;2023-05-07T08:21:47;9.90;;;2.85;;
64609;SDS011;51019;46.090;6.350;2023-05-07T08:24:15;11.20;;;3.35;;
64609;SDS011;51019;46.090;6.350;2023-05-07T08:26:44;10.13;;;3.13;;
64609;SDS011;51019;46.090;6.350;2023-05-07T08:29:14;10.05;;;3.40;;
64609;SDS011;51019;46.090;6.350;2023-05-07T08:31:44;10.40;;;3.13;;
64609;SDS011;51019;46.090;6.350;2023-05-07T08:34:12;10.20;;;3.10;;
64609;SDS011;51019;46.090;6.350;2023-05-07T08:36:39;11.88;;;3.00;;
64609;SDS011;51019;46.090;6.350;2023-05-07T08:39:07;10.13;;;3.30;;
64609;SDS011;51019;46.090;6.350;2023-05-07T08:41:35;10.48;;;3.30;;
64609;SDS011;51019;46.090;6.350;2023-05-07T08:44:05;10.20;;;3.00;;
64609;SDS011;51019;46.090;6.350;2023-05-07T08:46:42;7.65;;;2.58;;
64609;SDS011;51019;46.090;6.350;2023-05-07T08:49:13;15.60;;;3.50;;
64609;SDS011;51019;46.090;6.350;2023-05-07T08:51:41;9.15;;;2.60;;
64609;SDS011;51019;46.090;6.350;2023-05-07T08:54:09;9.32;;;3.08;;
64609;SDS011;51019;46.090;6.350;2023-05-07T08:56:38;10.60;;;2.88;;
64609;SDS011;51019;46.090;6.350;2023-05-07T08:59:06;9.77;;;2.90;;
64609;SDS011;51019;46.090;6.350;2023-05-07T09:01:33;10.15;;;3.05;;
64609;SDS011;51019;46.090;6.350;2023-05-07T09:04:02;10.20;;;2.97;;
64609;SDS011;51019;46.090;6.350;2023-05-07T09:06:31;13.20;;;4.05;;
64609;SDS011;51019;46.090;6.350;2023-05-07T09:09:00;12.45;;;3.45;;
64609;SDS011;51019;46.090;6.350;2023-05-07T09:11:30;10.55;;;3.00;;
64609;SDS011;51019;46.090;6.350;2023-05-07T09:13:58;10.00;;;3.00;;
64609;SDS011;51019;46.090;6.350;2023-05-07T09:16:28;10.63;;;3.25;;
64609;SDS011;51019;46.090;6.350;2023-05-07T09:18:57;10.38;;;3.38;;
64609;SDS011;51019;46.090;6.350;2023-05-07T09:21:28;11.05;;;3.05;;
64609;SDS011;51019;46.090;6.350;2023-05-07T09:23:55;11.88;;;3.13;;
64609;SDS011;51019;46.090;6.350;2023-05-07T09:26:22;9.07;;;2.55;;
64609;SDS011;51019;46.090;6.350;2023-05-07T09:28:50;10.07;;;2.70;;
64609;SDS011;51019;46.090;6.350;2023-05-07T09:31:18;11.07;;;3.05;;
64609;SDS011;51019;46.090;6.350;2023-05-07T09:33:48;12.32;;;3.40;;
64609;SDS011;51019;46.090;6.350;2023-05-07T09:36:16;9.88;;;2.63;;
64609;SDS011;51019;46.090;6.350;2023-05-07T09:38:46;12.60;;;2.60;;
64609;SDS011;51019;46.090;6.350;2023-05-07T09:41:13;9.82;;;2.60;;
64609;SDS011;51019;46.090;6.350;2023-05-07T09:43:40;11.40;;;2.70;;
64609;SDS011;51019;46.090;6.350;2023-05-07T09:46:09;9.93;;;2.72;;
64609;SDS011;51019;46.090;6.350;2023-05-07T09:48:39;7.38;;;2.40;;
64609;SDS011;51019;46.090;6.350;2023-05-07T09:51:11;9.93;;;2.60;;
64609;SDS011;51019;46.090;6.350;2023-05-07T09:53:47;8.95;;;2.53;;
64609;SDS011;51019;46.090;6.350;2023-05-07T09:56:17;7.72;;;2.50;;
64609;SDS011;51019;46.090;6.350;2023-05-07T09:58:47;7.40;;;2.60;;
64609;SDS011;51019;46.090;6.350;2023-05-07T10:01:16;8.02;;;2.33;;
64609;SDS011;51019;46.090;6.350;2023-05-07T10:03:47;7.57;;;2.33;;
64609;SDS011;51019;46.090;6.350;2023-05-07T10:06:18;7.80;;;2.47;;
64609;SDS011;51019;46.090;6.350;2023-05-07T10:08:48;10.57;;;2.83;;
64609;SDS011;51019;46.090;6.350;2023-05-07T10:11:17;10.27;;;2.90;;
64609;SDS011;51019;46.090;6.350;2023-05-07T10:13:47;8.43;;;2.50;;
64609;SDS011;51019;46.090;6.350;2023-05-07T10:16:15;12.73;;;3.10;;
64609;SDS011;51019;46.090;6.350;2023-05-07T10:18:44;9.00;;;2.40;;
64609;SDS011;51019;46.090;6.350;2023-05-07T10:21:14;11.10;;;2.50;;
64609;SDS011;51019;46.090;6.350;2023-05-07T10:23:45;10.23;;;2.75;;
64609;SDS011;51019;46.090;6.350;2023-05-07T10:26:19;9.82;;;2.78;;
64609;SDS011;51019;46.090;6.350;2023-05-07T10:28:50;8.90;;;2.70;;
64609;SDS011;51019;46.090;6.350;2023-05-07T10:31:29;9.80;;;2.67;;
64609;SDS011;51019;46.090;6.350;2023-05-07T10:34:06;10.48;;;3.00;;
64609;SDS011;51019;46.090;6.350;2023-05-07T10:36:36;10.30;;;3.17;;
64609;SDS011;51019;46.090;6.350;2023-05-07T10:39:04;8.60;;;2.78;;
64609;SDS011;51019;46.090;6.350;2023-05-07T10:41:35;9.23;;;2.60;;
64609;SDS011;51019;46.090;6.350;2023-05-07T10:44:03;10.07;;;2.50;;
64609;SDS011;51019;46.090;6.350;2023-05-07T10:46:31;9.70;;;2.50;;
64609;SDS011;51019;46.090;6.350;2023-05-07T10:49:06;8.23;;;2.40;;
64609;SDS011;51019;46.090;6.350;2023-05-07T10:51:36;10.02;;;2.40;;
64609;SDS011;51019;46.090;6.350;2023-05-07T10:54:20;7.15;;;2.30;;
64609;SDS011;51019;46.090;6.350;2023-05-07T10:56:51;9.00;;;2.30;;
64609;SDS011;51019;46.090;6.350;2023-05-07T10:59:34;9.23;;;2.28;;
64609;SDS011;51019;46.090;6.350;2023-05-07T11:02:10;8.20;;;2.38;;
64609;SDS011;51019;46.090;6.350;2023-05-07T11:04:39;7.70;;;2.33;;
64609;SDS011;51019;46.090;6.350;2023-05-07T11:09:54;8.60;;;2.35;;
64609;SDS011;51019;46.090;6.350;2023-05-07T11:15:49;8.20;;;2.40;;
64609;SDS011;51019;46.090;6.350;2023-05-07T11:18:19;8.02;;;2.35;;
64609;SDS011;51019;46.090;6.350;2023-05-07T11:20:47;8.25;;;2.38;;
64609;SDS011;51019;46.090;6.350;2023-05-07T11:26:27;7.20;;;2.22;;
64609;SDS011;51019;46.090;6.350;2023-05-07T11:28:57;8.70;;;2.35;;
64609;SDS011;51019;46.090;6.350;2023-05-07T11:31:27;10.40;;;2.90;;
64609;SDS011;51019;46.090;6.350;2023-05-07T11:33:55;10.55;;;2.90;;
64609;SDS011;51019;46.090;6.350;2023-05-07T11:36:23;9.10;;;2.50;;
64609;SDS011;51019;46.090;6.350;2023-05-07T11:38:52;9.80;;;2.55;;
64609;SDS011;51019;46.090;6.350;2023-05-07T11:41:21;9.15;;;2.55;;
64609;SDS011;51019;46.090;6.350;2023-05-07T11:43:54;7.55;;;2.30;;
64609;SDS011;51019;46.090;6.350;2023-05-07T11:46:30;8.23;;;2.58;;
64609;SDS011;51019;46.090;6.350;2023-05-07T11:48:57;8.48;;;2.47;;
64609;SDS011;51019;46.090;6.350;2023-05-07T11:51:25;8.48;;;2.40;;
64609;SDS011;51019;46.090;6.350;2023-05-07T11:53:53;7.57;;;2.33;;
64609;SDS011;51019;46.090;6.350;2023-05-07T11:56:21;9.13;;;2.42;;
64609;SDS011;51019;46.090;6.350;2023-05-07T11:58:49;8.63;;;2.75;;
64609;SDS011;51019;46.090;6.350;2023-05-07T12:01:17;7.45;;;2.40;;
64609;SDS011;51019;46.090;6.350;2023-05-07T12:03:46;7.45;;;2.40;;
64609;SDS011;51019;46.090;6.350;2023-05-07T12:06:15;11.93;;;3.00;;
64609;SDS011;51019;46.090;6.350;2023-05-07T12:08:44;9.85;;;2.80;;
64609;SDS011;51019;46.090;6.350;2023-05-07T12:11:15;11.48;;;3.50;;
64609;SDS011;51019;46.090;6.350;2023-05-07T12:13:48;11.20;;;2.85;;
64609;SDS011;51019;46.090;6.350;2023-05-07T12:16:15;9.57;;;3.05;;
64609;SDS011;51019;46.090;6.350;2023-05-07T12:18:44;9.65;;;2.63;;
64609;SDS011;51019;46.090;6.350;2023-05-07T12:21:13;10.65;;;3.35;;
64609;SDS011;51019;46.090;6.350;2023-05-07T12:23:42;10.75;;;3.35;;
64609;SDS011;51019;46.090;6.350;2023-05-07T12:26:09;17.25;;;4.50;;
64609;SDS011;51019;46.090;6.350;2023-05-07T12:28:37;11.30;;;2.95;;
64609;SDS011;51019;46.090;6.350;2023-05-07T12:31:06;16.40;;;4.60;;
64609;SDS011;51019;46.090;6.350;2023-05-07T12:33:34;16.45;;;4.65;;
64609;SDS011;51019;46.090;6.350;2023-05-07T12:36:07;12.13;;;3.58;;
64609;SDS011;51019;46.090;6.350;2023-05-07T12:38:36;13.90;;;3.50;;
64609;SDS011;51019;46.090;6.350;2023-05-07T12:41:05;11.57;;;3.00;;
64609;SDS011;51019;46.090;6.350;2023-05-07T12:43:34;10.50;;;3.72;;
64609;SDS011;51019;46.090;6.350;2023-05-07T12:46:03;11.88;;;3.63;;
64609;SDS011;51019;46.090;6.350;2023-05-07T12:48:32;11.70;;;3.05;;
64609;SDS011;51019;46.090;6.350;2023-05-07T12:51:00;10.65;;;2.80;;
64609;SDS011;51019;46.090;6.350;2023-05-07T12:53:30;10.65;;;3.20;;
64609;SDS011;51019;46.090;6.350;2023-05-07T12:55:58;9.77;;;3.03;;
64609;SDS011;51019;46.090;6.350;2023-05-07T12:58:28;11.20;;;3.70;;
64609;SDS011;51019;46.090;6.350;2023-05-07T13:00:57;12.70;;;3.70;;
64609;SDS011;51019;46.090;6.350;2023-05-07T13:03:26;10.50;;;2.80;;
64609;SDS011;51019;46.090;6.350;2023-05-07T13:05:57;18.20;;;3.72;;
64609;SDS011;51019;46.090;6.350;2023-05-07T13:08:26;11.02;;;3.30;;
64609;SDS011;51019;46.090;6.350;2023-05-07T13:10:57;9.45;;;2.90;;
64609;SDS011;51019;46.090;6.350;2023-05-07T13:13:29;10.02;;;2.70;;
64609;SDS011;51019;46.090;6.350;2023-05-07T13:15:56;9.90;;;2.83;;
64609;SDS011;51019;46.090;6.350;2023-05-07T13:18:25;10.02;;;3.08;;
64609;SDS011;51019;46.090;6.350;2023-05-07T13:20:53;8.43;;;2.55;;
64609;SDS011;51019;46.090;6.350;2023-05-07T13:23:20;10.25;;;2.83;;
64609;SDS011;51019;46.090;6.350;2023-05-07T13:25:48;10.18;;;2.40;;
64609;SDS011;51019;46.090;6.350;2023-05-07T13:28:20;8.80;;;2.72;;
64609;SDS011;51019;46.090;6.350;2023-05-07T13:30:48;12.02;;;2.88;;
64609;SDS011;51019;46.090;6.350;2023-05-07T13:33:17;10.68;;;2.60;;
64609;SDS011;51019;46.090;6.350;2023-05-07T13:35:45;8.73;;;2.40;;
64609;SDS011;51019;46.090;6.350;2023-05-07T13:38:12;9.55;;;2.85;;
64609;SDS011;51019;46.090;6.350;2023-05-07T13:40:41;9.00;;;2.80;;
64609;SDS011;51019;46.090;6.350;2023-05-07T13:43:08;10.57;;;2.40;;
64609;SDS011;51019;46.090;6.350;2023-05-07T13:45:38;9.85;;;2.50;;
64609;SDS011;51019;46.090;6.350;2023-05-07T13:48:06;10.07;;;2.92;;
64609;SDS011;51019;46.090;6.350;2023-05-07T13:50:34;10.68;;;2.60;;
64609;SDS011;51019;46.090;6.350;2023-05-07T13:53:01;9.38;;;2.67;;
64609;SDS011;51019;46.090;6.350;2023-05-07T13:55:29;9.10;;;2.67;;
64609;SDS011;51019;46.090;6.350;2023-05-07T13:57:58;9.05;;;2.67;;
64609;SDS011;51019;46.090;6.350;2023-05-07T14:00:26;8.40;;;2.72;;
64609;SDS011;51019;46.090;6.350;2023-05-07T14:02:56;10.10;;;3.08;;
64609;SDS011;51019;46.090;6.350;2023-05-07T14:05:25;10.02;;;2.58;;
64609;SDS011;51019;46.090;6.350;2023-05-07T14:08:02;9.25;;;2.58;;
64609;SDS011;51019;46.090;6.350;2023-05-07T14:10:32;9.18;;;2.63;;
64609;SDS011;51019;46.090;6.350;2023-05-07T14:13:01;9.95;;;2.70;;
64609;SDS011;51019;46.090;6.350;2023-05-07T14:15:29;9.40;;;2.75;;
64609;SDS011;51019;46.090;6.350;2023-05-07T14:17:59;11.70;;;2.90;;
64609;SDS011;51019;46.090;6.350;2023-05-07T14:20:27;9.13;;;2.88;;
64609;SDS011;51019;46.090;6.350;2023-05-07T14:22:55;10.73;;;3.08;;
64609;SDS011;51019;46.090;6.350;2023-05-07T14:25:23;7.95;;;2.58;;
64609;SDS011;51019;46.090;6.350;2023-05-07T14:27:50;9.80;;;2.60;;
64609;SDS011;51019;46.090;6.350;2023-05-07T14:30:18;7.05;;;2.40;;
64609;SDS011;51019;46.090;6.350;2023-05-07T14:32:45;9.40;;;2.78;;
64609;SDS011;51019;46.090;6.350;2023-05-07T14:35:14;10.13;;;2.67;;
64609;SDS011;51019;46.090;6.350;2023-05-07T14:37:43;8.15;;;2.70;;
64609;SDS011;51019;46.090;6.350;2023-05-07T14:40:11;14.60;;;3.20;;
64609;SDS011;51019;46.090;6.350;2023-05-07T14:42:39;10.38;;;3.30;;
64609;SDS011;51019;46.090;6.350;2023-05-07T14:45:07;9.77;;;2.92;;
64609;SDS011;51019;46.090;6.350;2023-05-07T14:47:36;10.13;;;2.83;;
64609;SDS011;51019;46.090;6.350;2023-05-07T14:50:03;11.35;;;3.22;;
64609;SDS011;51019;46.090;6.350;2023-05-07T14:52:33;10.55;;;3.40;;
64609;SDS011;51019;46.090;6.350;2023-05-07T14:55:01;9.85;;;2.80;;
64609;SDS011;51019;46.090;6.350;2023-05-07T14:57:29;10.30;;;2.50;;